Flight Track Log - Related Links

Times and Time Zones

All times are in EDT time to prevent confusion due to time zone crossing. See the SWA104 flight status page for this flight to view local times or setup timezone preferences in your user account.


Time Position Orientation Groundspeed Altitude Reporting Facility
EDT Latitude Longitude Course Direction KTS MPH feet Rate Location/Type
Sun 08:01:47 PM 33.9453 -118.4539 287° West 157 181 1,700  Level Los Angeles Center
Sun 08:02:49 PM 33.9392 -118.5333 265° West 231 266 3,600 2,419 Climbing Los Angeles Center
Sun 08:03:51 PM 33.9289 -118.6208 262° West 261 300 6,700 3,532 Climbing Los Angeles Center
Sun 08:04:53 PM 33.9172 -118.7194 262° West 275 316 10,900 3,456 Climbing Los Angeles Center
Sun 08:05:56 PM 33.9089 -118.8119 264° West 295 339 13,900 3,120 Climbing Los Angeles Center
Sun 08:06:58 PM 33.9372 -118.9047 290° West 314 361 17,400 3,145 Climbing Los Angeles Center
Sun 08:07:00 PM 34.0854 -118.9416 287° West  Level FlightAware Approximate
Sun 08:08:00 PM 33.9931 -118.9900 308° West 322 371 20,400  Level Los Angeles Center
Sun 08:09:02 PM 34.0675 -119.1025 309° West 372 428 22,400 2,032 Climbing Los Angeles Center
Sun 08:10:04 PM 34.1342 -119.2069 308° West 392 451 24,600 2,177 Climbing Los Angeles Center
Sun 08:11:06 PM 34.2067 -119.3136 309° West 407 468 26,900 2,129 Climbing Los Angeles Center
Sun 08:12:08 PM 34.2800 -119.4258 308° West 423 487 29,000 2,323 Climbing Los Angeles Center
Sun 08:13:10 PM 34.3550 -119.5383 309° West 427 491 31,700 2,468 Climbing Los Angeles Center
Sun 08:14:12 PM 34.4233 -119.6447 308° West 411 473 34,100 2,081 Climbing Los Angeles Center
Sun 08:15:14 PM 34.5067 -119.7711 309° West 403 464 36,000 912 Climbing Los Angeles Center
Sun 08:16:17 PM 34.5900 -119.8650 317° Northwest 409 471 36,000  Level Los Angeles Center
Sun 08:17:19 PM 34.6778 -119.9547 320° Northwest 415 478 36,000  Level Los Angeles Center
Sun 08:18:21 PM 34.7636 -120.0475 318° Northwest 414 476 36,000  Level Los Angeles Center
Sun 08:19:23 PM 34.8456 -120.1378 318° Northwest 415 478 36,000  Level Los Angeles Center
Sun 08:20:25 PM 34.9475 -120.2511 318° Northwest 418 481 36,000  Level Los Angeles Center
Sun 08:21:27 PM 35.0333 -120.3450 318° Northwest 419 482 36,000  Level Los Angeles Center
Sun 08:22:29 PM 35.1169 -120.4378 318° Northwest 413 475 36,000  Level Los Angeles Center
Sun 08:23:31 PM 35.2011 -120.5319 318° Northwest 417 480 36,000  Level Los Angeles Center
Sun 08:24:33 PM 35.2861 -120.6272 318° Northwest 418 481 36,000  Level Los Angeles Center
Sun 08:25:35 PM 35.3883 -120.7419 318° Northwest 418 481 36,000  Level Los Angeles Center
Sun 08:26:38 PM 35.4828 -120.8253 324° Northwest 420 483 36,000  Level Los Angeles Center
Sun 08:27:40 PM 35.5772 -120.9086 324° Northwest 420 483 36,000  Level Los Angeles Center
Sun 08:28:42 PM 35.6681 -120.9886 324° Northwest 418 481 36,000  Level Los Angeles Center
Sun 08:29:06 PM 35.7225 -121.0403 322° Northwest 412 474 36,000  Level Oakland Center
Sun 08:30:08 PM 35.8183 -121.1256 324° Northwest 418 481 36,000  Level Oakland Center
Sun 08:31:09 PM 35.9128 -121.2114 324° Northwest 417 480 36,000 -98 Level Oakland Center
Sun 08:32:10 PM 36.0106 -121.2964 325° Northwest 424 488 35,800 -1,366 Descending Oakland Center
Sun 08:33:12 PM 36.1072 -121.3831 324° Northwest 428 493 33,200 -2,488 Descending Oakland Center
Sun 08:34:13 PM 36.2050 -121.4706 324° Northwest 429 494 30,700 -2,361 Descending Oakland Center
Sun 08:35:14 PM 36.2969 -121.5569 323° Northwest 414 476 28,400 -2,195 Descending Oakland Center
Sun 08:36:16 PM 36.3878 -121.6394 324° Northwest 399 459 26,200 -2,146 Descending Oakland Center
Sun 08:37:17 PM 36.4739 -121.7194 323° Northwest 383 441 24,000 -2,278 Descending Oakland Center
Sun 08:38:04 PM 36.5500 -121.7833 326° Northwest 376 433 22,100 -2,299 Descending Northern Cal TRACON
Sun 08:39:04 PM 36.6333 -121.8667 321° Northwest 371 427 19,900 -2,048 Descending Northern Cal TRACON
Sun 08:40:10 PM 36.7333 -121.9500 326° Northwest 356 410 17,800 -1,714 Descending Northern Cal TRACON
Sun 08:41:10 PM 36.8167 -121.9833 342° North 349 402 16,300 -1,350 Descending Northern Cal TRACON
Sun 08:42:10 PM 36.9000 -122.0000 351° North 321 369 15,100 -1,476 Descending Northern Cal TRACON
Sun 08:43:16 PM 37.0000 -122.0333 345° North 309 356 13,200 -1,667 Descending Northern Cal TRACON
Sun 08:44:16 PM 37.0833 -122.0500 351° North 297 342 11,600 -1,474 Descending Northern Cal TRACON
Sun 08:45:10 PM 37.1500 -122.0667 349° North 292 336 10,400 -1,268 Descending Northern Cal TRACON
Sun 08:45:27 PM 37.1644 -122.0736 339° North 293 337 10,100 -1,231 Descending Oakland Center
Sun 08:46:28 PM 37.2419 -122.0956 347° North 286 329 8,800 -1,415 Descending Oakland Center
Sun 08:47:30 PM 37.3344 -122.1186 349° North 281 323 7,200 -1,167 Descending Oakland Center
Sun 08:48:16 PM 37.3833 -122.1333 347° North 244 281 6,700 -1,189 Descending Northern Cal TRACON
Sun 08:49:16 PM 37.4500 -122.1500 349° North 223 257 5,100 -1,250 Descending Northern Cal TRACON
Sun 08:50:16 PM 37.5000 -122.1667 345° North 216 249 4,200 -1,050 Descending Northern Cal TRACON
Sun 08:51:16 PM 37.5500 -122.2167 322° Northwest 188 216 3,000 -1,200 Descending Northern Cal TRACON
Sun 08:52:16 PM 37.5667 -122.2667 293° West 168 193 1,800 -1,053 Descending Northern Cal TRACON
Sun 08:53:10 PM 37.5833 -122.3000 302° West 128 147 1,000 -737 Descending Northern Cal TRACON
Sun 08:54:10 PM 37.6000 -122.3333 302° West 124 143 400 -600 Descending Northern Cal TRACON
Sun 08:56:00 PM 37.6167 -122.3667 322° Northwest  Level FlightAware Approximate
Sun 09:03:00 PM 37.6191 -122.3752 322° Northwest  Level Estimated

Login

Don't have an account? Register now (free) for customized features, flight alerts, and more!